AIQ992 VTBD-VVTS
Flight info
| Callsign | AIQ992 |
|---|---|
| Flight time | N/A |
| Altitude | 39000 |
| Route | GORSI3C GORSI N506 ELMOP R468 SAPEN/K0880F390 SAPEN5B |
| Aircraft | A343/H-SDE2E3FGHIJ4J5M1RWXY/LB1D1 |
Departure
| Time | 2026-05-06 12:58 |
|---|---|
| Airport | Don Mueang International Airport (VTBD) |
Arrival
| Time | N/A |
|---|---|
| Airport | Tan Son Nhat International Airport (VVTS) |
| Time | Latitude | Longitude | Altitude | Speed | Heading |
|---|---|---|---|---|---|
| 2026-05-06 12:52 | 13.92478 | 100.60718 | 25 ft | 12 kts | 29° |
| 2026-05-06 12:52 | 13.92558 | 100.60764 | 26 ft | 14 kts | 29° |
| 2026-05-06 12:53 | 13.92740 | 100.60876 | 24 ft | 7 kts | 54° |
| 2026-05-06 12:53 | 13.92742 | 100.60909 | 22 ft | 5 kts | 98° |
| 2026-05-06 12:53 | 13.92727 | 100.60947 | 24 ft | 9 kts | 117° |
| 2026-05-06 12:54 | 13.92652 | 100.61093 | 23 ft | 13 kts | 121° |
| 2026-05-06 12:54 | 13.92604 | 100.61178 | 20 ft | 15 kts | 119° |
| 2026-05-06 12:54 | 13.92552 | 100.61275 | 21 ft | 16 kts | 119° |
| 2026-05-06 12:55 | 13.92496 | 100.61378 | 22 ft | 17 kts | 119° |
| 2026-05-06 12:55 | 13.92453 | 100.61460 | 20 ft | 12 kts | 119° |
| 2026-05-06 12:55 | 13.92393 | 100.61510 | 18 ft | 9 kts | 175° |
| 2026-05-06 12:55 | 13.92344 | 100.61493 | 19 ft | 7 kts | 206° |
| 2026-05-06 12:56 | 13.92326 | 100.61483 | 19 ft | 0 kts | 208° |
| 2026-05-06 12:57 | 13.92263 | 100.61447 | 20 ft | 34 kts | 208° |
| 2026-05-06 12:57 | 13.91848 | 100.61218 | 24 ft | 98 kts | 207° |
| 2026-05-06 12:57 | 13.91088 | 100.60791 | 28 ft | 149 kts | 207° |
| 2026-05-06 12:57 | 13.90095 | 100.60218 | 313 ft | 173 kts | 206° |
| 2026-05-06 12:58 | 13.89018 | 100.59622 | 966 ft | 178 kts | 206° |
| 2026-05-06 12:58 | 13.87848 | 100.59064 | 1603 ft | 196 kts | 192° |
| 2026-05-06 12:58 | 13.86394 | 100.58893 | 1982 ft | 226 kts | 191° |
| 2026-05-06 12:58 | 13.85358 | 100.58570 | 2305 ft | 243 kts | 202° |
| 2026-05-06 12:59 | 13.83979 | 100.57486 | 3034 ft | 260 kts | 232° |
| 2026-05-06 12:59 | 13.83228 | 100.55756 | 3881 ft | 271 kts | 256° |
| 2026-05-06 12:59 | 13.82812 | 100.53840 | 4808 ft | 277 kts | 255° |
| 2026-05-06 12:59 | 13.82267 | 100.51935 | 5816 ft | 278 kts | 250° |
| 2026-05-06 13:00 | 13.81268 | 100.49491 | 7032 ft | 284 kts | 245° |
| 2026-05-06 13:00 | 13.80780 | 100.48202 | 7469 ft | 288 kts | 250° |
| 2026-05-06 13:00 | 13.80157 | 100.46260 | 7868 ft | 292 kts | 249° |
| 2026-05-06 13:00 | 13.79286 | 100.44372 | 8017 ft | 292 kts | 236° |
| 2026-05-06 13:01 | 13.77914 | 100.42859 | 8003 ft | 289 kts | 213° |
| 2026-05-06 13:01 | 13.76086 | 100.42097 | 8095 ft | 284 kts | 185° |
| 2026-05-06 13:01 | 13.74097 | 100.42121 | 8533 ft | 288 kts | 174° |
| 2026-05-06 13:01 | 13.72086 | 100.42304 | 9414 ft | 291 kts | 173° |
| 2026-05-06 13:02 | 13.70055 | 100.42500 | 10297 ft | 296 kts | 173° |
| 2026-05-06 13:02 | 13.67940 | 100.42741 | 10723 ft | 316 kts | 169° |
| 2026-05-06 13:02 | 13.65796 | 100.43486 | 11010 ft | 337 kts | 149° |
| 2026-05-06 13:02 | 13.63997 | 100.45098 | 11308 ft | 353 kts | 125° |
| 2026-05-06 13:03 | 13.62955 | 100.47402 | 11838 ft | 361 kts | 103° |
| 2026-05-06 13:03 | 13.61949 | 100.52946 | 13175 ft | 374 kts | 99° |
| 2026-05-06 13:04 | 13.60007 | 100.64105 | 15637 ft | 392 kts | 99° |
| 2026-05-06 13:04 | 13.59681 | 100.65937 | 16057 ft | 394 kts | 99° |
| 2026-05-06 13:05 | 13.59184 | 100.68727 | 16664 ft | 398 kts | 99° |
| 2026-05-06 13:05 | 13.58517 | 100.72471 | 17494 ft | 403 kts | 99° |
| 2026-05-06 13:05 | 13.58008 | 100.75321 | 18120 ft | 407 kts | 99° |
| 2026-05-06 13:05 | 13.57668 | 100.77225 | 18483 ft | 410 kts | 99° |
| 2026-05-06 13:06 | 13.57150 | 100.80118 | 19024 ft | 413 kts | 99° |
| 2026-05-06 13:06 | 13.56628 | 100.83039 | 19568 ft | 417 kts | 99° |
| 2026-05-06 13:06 | 13.56100 | 100.85987 | 20108 ft | 420 kts | 99° |
| 2026-05-06 13:06 | 13.55569 | 100.88951 | 20644 ft | 424 kts | 99° |
| 2026-05-06 13:07 | 13.55032 | 100.91944 | 21169 ft | 427 kts | 99° |
| 2026-05-06 13:07 | 13.54491 | 100.94958 | 21680 ft | 431 kts | 99° |
| 2026-05-06 13:07 | 13.53943 | 100.98007 | 22191 ft | 434 kts | 99° |
| 2026-05-06 13:07 | 13.53393 | 101.01067 | 22691 ft | 438 kts | 99° |
| 2026-05-06 13:08 | 13.52851 | 101.04158 | 23163 ft | 441 kts | 98° |
| 2026-05-06 13:08 | 13.52541 | 101.07302 | 23622 ft | 444 kts | 92° |
| 2026-05-06 13:08 | 13.52408 | 101.10486 | 24005 ft | 447 kts | 91° |
| 2026-05-06 13:08 | 13.52300 | 101.13685 | 24399 ft | 450 kts | 91° |
| 2026-05-06 13:09 | 13.52191 | 101.16906 | 24805 ft | 453 kts | 91° |
| 2026-05-06 13:09 | 13.52080 | 101.20112 | 25197 ft | 456 kts | 91° |
| 2026-05-06 13:09 | 13.51965 | 101.23378 | 25592 ft | 458 kts | 91° |
| 2026-05-06 13:09 | 13.51848 | 101.26665 | 25995 ft | 461 kts | 91° |
| 2026-05-06 13:10 | 13.51729 | 101.29972 | 26382 ft | 464 kts | 91° |
| 2026-05-06 13:10 | 13.51496 | 101.33295 | 26729 ft | 469 kts | 97° |
| 2026-05-06 13:10 | 13.50801 | 101.36573 | 27091 ft | 473 kts | 107° |
| 2026-05-06 13:10 | 13.49578 | 101.39726 | 27488 ft | 476 kts | 114° |
| 2026-05-06 13:11 | 13.48140 | 101.42798 | 27874 ft | 479 kts | 116° |
| 2026-05-06 13:11 | 13.46617 | 101.45850 | 28246 ft | 482 kts | 117° |
| 2026-05-06 13:11 | 13.45053 | 101.48911 | 28611 ft | 485 kts | 117° |
| 2026-05-06 13:11 | 13.43475 | 101.51987 | 28957 ft | 487 kts | 117° |
| 2026-05-06 13:12 | 13.41897 | 101.55079 | 29306 ft | 490 kts | 117° |
| 2026-05-06 13:12 | 13.40334 | 101.58166 | 29632 ft | 493 kts | 117° |
| 2026-05-06 13:12 | 13.38769 | 101.61307 | 29983 ft | 495 kts | 116° |
| 2026-05-06 13:12 | 13.37227 | 101.64484 | 30258 ft | 498 kts | 116° |
| 2026-05-06 13:13 | 13.35692 | 101.67685 | 30519 ft | 500 kts | 116° |
| 2026-05-06 13:13 | 13.34159 | 101.70890 | 30879 ft | 500 kts | 116° |
| 2026-05-06 13:13 | 13.32626 | 101.74092 | 31260 ft | 500 kts | 116° |
| 2026-05-06 13:13 | 13.31090 | 101.77291 | 31676 ft | 499 kts | 116° |
| 2026-05-06 13:14 | 13.29553 | 101.80481 | 32091 ft | 497 kts | 116° |
| 2026-05-06 13:14 | 13.28018 | 101.83660 | 32448 ft | 497 kts | 116° |
| 2026-05-06 13:14 | 13.26480 | 101.86842 | 32809 ft | 496 kts | 116° |
| 2026-05-06 13:14 | 13.24948 | 101.90009 | 33240 ft | 495 kts | 116° |
| 2026-05-06 13:15 | 13.23437 | 101.93130 | 33596 ft | 494 kts | 116° |
| 2026-05-06 13:15 | 13.21910 | 101.96290 | 33922 ft | 494 kts | 116° |
| 2026-05-06 13:15 | 13.20363 | 101.99492 | 34226 ft | 494 kts | 117° |
| 2026-05-06 13:15 | 13.18855 | 102.02606 | 34481 ft | 494 kts | 117° |
| 2026-05-06 13:16 | 13.17324 | 102.05763 | 34764 ft | 495 kts | 117° |
| 2026-05-06 13:16 | 13.15789 | 102.08927 | 34995 ft | 495 kts | 117° |
| 2026-05-06 13:16 | 13.14253 | 102.12092 | 35351 ft | 494 kts | 117° |
| 2026-05-06 13:16 | 13.12726 | 102.15240 | 35651 ft | 492 kts | 117° |
| 2026-05-06 13:17 | 13.11203 | 102.18379 | 35985 ft | 491 kts | 117° |
| 2026-05-06 13:17 | 13.09686 | 102.21507 | 36348 ft | 489 kts | 117° |
| 2026-05-06 13:17 | 13.08173 | 102.24623 | 36634 ft | 487 kts | 117° |
| 2026-05-06 13:17 | 13.06662 | 102.27735 | 36917 ft | 487 kts | 117° |
| 2026-05-06 13:18 | 13.03591 | 102.34054 | 37552 ft | 484 kts | 118° |
| 2026-05-06 13:18 | 13.02091 | 102.37139 | 37838 ft | 483 kts | 117° |
| 2026-05-06 13:18 | 13.00594 | 102.40216 | 38135 ft | 481 kts | 117° |
| 2026-05-06 13:19 | 12.99098 | 102.43291 | 38341 ft | 482 kts | 117° |
| 2026-05-06 13:19 | 12.97595 | 102.46378 | 38517 ft | 484 kts | 117° |
| 2026-05-06 13:19 | 12.96095 | 102.49459 | 38741 ft | 483 kts | 117° |
| 2026-05-06 13:19 | 12.94535 | 102.52521 | 38849 ft | 484 kts | 120° |
| 2026-05-06 13:20 | 12.92834 | 102.55462 | 38866 ft | 473 kts | 123° |
| 2026-05-06 13:20 | 12.91106 | 102.58274 | 38873 ft | 459 kts | 123° |
| 2026-05-06 13:20 | 12.89403 | 102.61000 | 38879 ft | 446 kts | 123° |
| 2026-05-06 13:20 | 12.87761 | 102.63645 | 38873 ft | 434 kts | 123° |
| 2026-05-06 13:21 | 12.86181 | 102.66224 | 38875 ft | 429 kts | 123° |
| 2026-05-06 13:21 | 12.83044 | 102.71425 | 38868 ft | 430 kts | 122° |
| 2026-05-06 13:22 | 12.79923 | 102.76663 | 38870 ft | 431 kts | 122° |
| 2026-05-06 13:22 | 12.76792 | 102.81923 | 38866 ft | 434 kts | 122° |
| 2026-05-06 13:23 | 12.73641 | 102.87211 | 38871 ft | 435 kts | 122° |
| 2026-05-06 13:23 | 12.70505 | 102.92467 | 38871 ft | 435 kts | 122° |
| 2026-05-06 13:24 | 12.67344 | 102.97761 | 38868 ft | 435 kts | 122° |
| 2026-05-06 13:24 | 12.64186 | 103.03046 | 38869 ft | 435 kts | 122° |
| 2026-05-06 13:25 | 12.61044 | 103.08302 | 38867 ft | 435 kts | 122° |
| 2026-05-06 13:25 | 12.57885 | 103.13585 | 38873 ft | 434 kts | 122° |
| 2026-05-06 13:26 | 12.54736 | 103.18848 | 38877 ft | 432 kts | 122° |
| 2026-05-06 13:26 | 12.51589 | 103.24103 | 38869 ft | 431 kts | 122° |
| 2026-05-06 13:27 | 12.48452 | 103.29339 | 38869 ft | 431 kts | 122° |
| 2026-05-06 13:27 | 12.45333 | 103.34541 | 38871 ft | 431 kts | 122° |
| 2026-05-06 13:28 | 12.42193 | 103.39776 | 38879 ft | 431 kts | 122° |
| 2026-05-06 13:28 | 12.39054 | 103.45006 | 38881 ft | 431 kts | 122° |
| 2026-05-06 13:29 | 12.35914 | 103.50236 | 38875 ft | 431 kts | 122° |
| 2026-05-06 13:29 | 12.32786 | 103.55444 | 38874 ft | 428 kts | 123° |
| 2026-05-06 13:30 | 12.29674 | 103.60621 | 38872 ft | 427 kts | 123° |
| 2026-05-06 13:30 | 12.26564 | 103.65790 | 38886 ft | 427 kts | 123° |
| 2026-05-06 13:31 | 12.23447 | 103.70971 | 38886 ft | 427 kts | 123° |
| 2026-05-06 13:31 | 12.20328 | 103.76142 | 38885 ft | 427 kts | 123° |
| 2026-05-06 13:32 | 12.17197 | 103.81302 | 38882 ft | 427 kts | 123° |
| 2026-05-06 13:32 | 12.14081 | 103.86435 | 38882 ft | 427 kts | 123° |
| 2026-05-06 13:33 | 12.10953 | 103.91591 | 38892 ft | 426 kts | 123° |
| 2026-05-06 13:33 | 12.07824 | 103.96748 | 38890 ft | 426 kts | 123° |
| 2026-05-06 13:34 | 12.04701 | 104.01893 | 38879 ft | 426 kts | 123° |
| 2026-05-06 13:34 | 12.01573 | 104.07044 | 38886 ft | 426 kts | 123° |
| 2026-05-06 13:35 | 11.98463 | 104.12161 | 38881 ft | 426 kts | 123° |
| 2026-05-06 13:35 | 11.95342 | 104.17295 | 38879 ft | 425 kts | 123° |
| 2026-05-06 13:36 | 11.92220 | 104.22428 | 38870 ft | 426 kts | 123° |
| 2026-05-06 13:36 | 11.89074 | 104.27598 | 38873 ft | 429 kts | 123° |
| 2026-05-06 13:37 | 11.85923 | 104.32779 | 38874 ft | 430 kts | 123° |
| 2026-05-06 13:37 | 11.84345 | 104.35367 | 38873 ft | 430 kts | 123° |